createdAt,value
2022-10-05T00:01:53.864Z,14.80
2022-10-05T00:04:24.132Z,14.80
2022-10-05T00:06:58.243Z,14.80
2022-10-05T00:09:31.686Z,14.70
2022-10-05T00:12:00.031Z,14.80
2022-10-05T00:14:31.440Z,14.70
2022-10-05T00:16:59.866Z,14.60
2022-10-05T00:19:32.033Z,14.50
2022-10-05T00:22:01.219Z,14.20
2022-10-05T00:24:31.379Z,14.20
2022-10-05T00:27:01.907Z,14.00
2022-10-05T00:29:30.012Z,14.50
2022-10-05T00:31:59.331Z,14.00
2022-10-05T00:34:27.479Z,14.10
2022-10-05T00:36:55.738Z,14.00
2022-10-05T00:39:23.862Z,14.10
2022-10-05T00:42:07.855Z,14.80
2022-10-05T00:44:42.328Z,14.70
2022-10-05T00:47:38.213Z,14.40
2022-10-05T00:50:33.600Z,14.80
2022-10-05T00:53:11.322Z,14.20
2022-10-05T00:55:50.599Z,14.20
2022-10-05T00:58:31.995Z,14.40
2022-10-05T01:01:09.092Z,14.20
2022-10-05T01:03:47.039Z,14.20
2022-10-05T01:06:24.178Z,14.20
2022-10-05T01:08:59.202Z,14.70
2022-10-05T01:11:32.604Z,14.20
2022-10-05T01:14:13.026Z,14.30
2022-10-05T01:16:51.320Z,14.60
2022-10-05T01:19:40.779Z,14.20
2022-10-05T01:22:21.070Z,14.10
2022-10-05T01:25:08.864Z,14.10
2022-10-05T01:27:42.627Z,14.10
2022-10-05T01:30:15.014Z,14.00
2022-10-05T01:32:49.886Z,14.00
2022-10-05T01:35:26.549Z,14.00
2022-10-05T01:38:04.995Z,14.00
2022-10-05T01:40:38.987Z,14.00
2022-10-05T01:43:15.845Z,14.70
2022-10-05T01:45:52.535Z,13.90
2022-10-05T01:48:28.203Z,13.90
2022-10-05T01:51:07.209Z,13.80
2022-10-05T01:53:48.125Z,13.80
2022-10-05T01:56:25.837Z,13.90
2022-10-05T01:59:06.047Z,13.90
2022-10-05T02:01:45.258Z,13.90
2022-10-05T02:04:43.333Z,13.90
2022-10-05T02:07:15.143Z,14.00
2022-10-05T02:09:49.303Z,14.40
2022-10-05T02:12:20.827Z,14.00
2022-10-05T02:14:58.660Z,14.00
2022-10-05T02:17:33.651Z,13.40
2022-10-05T02:20:06.878Z,13.90
2022-10-05T02:22:38.906Z,13.90
2022-10-05T02:25:12.517Z,14.00
2022-10-05T02:27:47.196Z,13.80
2022-10-05T02:30:19.008Z,13.90
2022-10-05T02:32:55.278Z,13.90
2022-10-05T02:35:23.759Z,14.00
2022-10-05T02:38:03.521Z,14.20
2022-10-05T02:40:43.207Z,14.30
2022-10-05T02:43:22.004Z,14.30
2022-10-05T02:46:00.537Z,14.40
2022-10-05T02:48:37.739Z,14.50
2022-10-05T02:51:16.547Z,14.30
2022-10-05T02:53:59.788Z,14.30
2022-10-05T02:56:34.418Z,14.30
2022-10-05T02:59:10.141Z,14.40
2022-10-05T03:01:47.131Z,14.40
2022-10-05T03:04:26.137Z,14.90
2022-10-05T03:07:04.713Z,14.20
2022-10-05T03:09:40.494Z,14.30
2022-10-05T03:12:17.231Z,14.30
2022-10-05T03:14:57.760Z,14.10
2022-10-05T03:17:31.901Z,14.30
2022-10-05T03:20:12.431Z,14.20
2022-10-05T03:22:50.702Z,14.10
2022-10-05T03:25:43.643Z,13.80
2022-10-05T03:28:18.877Z,13.90
2022-10-05T03:30:53.976Z,14.00
2022-10-05T03:33:36.257Z,14.00
2022-10-05T03:36:11.915Z,14.00
2022-10-05T03:38:44.692Z,14.10
2022-10-05T03:41:22.537Z,14.10
2022-10-05T03:44:17.018Z,14.40
2022-10-05T03:46:59.830Z,14.10
2022-10-05T03:49:39.961Z,14.10
2022-10-05T03:52:14.762Z,14.40
2022-10-05T03:54:47.062Z,13.80
2022-10-05T03:57:19.686Z,13.60
2022-10-05T03:59:58.420Z,13.90
2022-10-05T04:02:29.461Z,13.50
2022-10-05T04:05:04.339Z,13.20
2022-10-05T04:07:42.731Z,13.00
2022-10-05T04:10:18.489Z,13.50
2022-10-05T04:12:52.074Z,12.80
2022-10-05T04:15:28.007Z,13.30
2022-10-05T04:18:01.792Z,13.50
2022-10-05T04:20:38.028Z,13.50
2022-10-05T04:23:14.326Z,13.60
2022-10-05T04:25:47.277Z,13.70
2022-10-05T04:28:21.104Z,13.50
2022-10-05T04:30:52.338Z,13.20
2022-10-05T04:33:22.456Z,13.20
2022-10-05T04:36:09.927Z,13.10
2022-10-05T04:38:51.954Z,13.40
2022-10-05T04:41:45.915Z,13.40
2022-10-05T04:44:30.724Z,14.10
2022-10-05T04:47:15.779Z,13.50
2022-10-05T04:50:00.280Z,13.60
2022-10-05T04:52:36.834Z,14.10
2022-10-05T04:55:13.823Z,13.50
2022-10-05T04:57:49.379Z,13.60
2022-10-05T05:00:24.092Z,13.50
2022-10-05T05:03:18.118Z,13.60
2022-10-05T05:06:15.993Z,13.40
2022-10-05T05:09:04.321Z,13.20
2022-10-05T05:11:42.804Z,13.40
2022-10-05T05:14:46.649Z,13.50
2022-10-05T05:17:31.803Z,13.50
2022-10-05T05:20:10.713Z,13.50
2022-10-05T05:22:46.613Z,13.30
2022-10-05T05:25:32.174Z,13.40
2022-10-05T05:28:15.732Z,13.30
2022-10-05T05:30:49.037Z,13.20
2022-10-05T05:33:24.259Z,13.00
2022-10-05T05:36:26.095Z,13.10
2022-10-05T05:39:24.538Z,13.20
2022-10-05T05:42:20.693Z,13.10
2022-10-05T05:44:53.042Z,13.20
2022-10-05T05:47:28.637Z,13.40
2022-10-05T05:50:19.627Z,13.30
2022-10-05T05:52:56.685Z,12.90
2022-10-05T05:55:30.685Z,12.60
2022-10-05T05:58:10.370Z,12.80
2022-10-05T06:00:44.059Z,12.90
2022-10-05T06:03:17.666Z,12.80
2022-10-05T06:05:49.860Z,13.40
2022-10-05T06:08:25.726Z,12.90
2022-10-05T06:11:02.527Z,13.40
2022-10-05T06:13:35.499Z,13.50
2022-10-05T06:16:13.851Z,13.40
2022-10-05T06:18:47.798Z,13.50
2022-10-05T06:21:23.727Z,13.90
2022-10-05T06:24:00.173Z,13.80
2022-10-05T06:26:43.727Z,13.60
2022-10-05T06:29:20.347Z,13.80
2022-10-05T06:32:03.617Z,13.90
2022-10-05T06:34:52.183Z,13.90
2022-10-05T06:37:34.108Z,13.90
2022-10-05T06:40:12.438Z,14.10
2022-10-05T06:42:53.757Z,14.10
2022-10-05T06:45:59.210Z,13.90
2022-10-05T06:48:55.467Z,13.90
2022-10-05T06:51:57.151Z,14.00
2022-10-05T06:54:48.097Z,14.00
2022-10-05T06:57:42.896Z,14.40
2022-10-05T07:00:19.806Z,14.10
2022-10-05T07:02:56.899Z,14.30
2022-10-05T07:05:44.753Z,14.40
2022-10-05T07:08:18.141Z,14.30
2022-10-05T07:11:00.068Z,14.40
2022-10-05T07:13:48.598Z,14.20
2022-10-05T07:16:26.376Z,14.20
2022-10-05T07:19:12.362Z,14.40
2022-10-05T07:21:46.690Z,14.40
2022-10-05T07:24:29.197Z,14.30
2022-10-05T07:27:08.215Z,14.90
2022-10-05T07:29:45.197Z,14.90
2022-10-05T07:32:25.661Z,14.70
2022-10-05T07:35:05.078Z,14.70
2022-10-05T07:37:57.833Z,14.90
2022-10-05T07:40:39.251Z,15.00
2022-10-05T07:43:20.030Z,14.90
2022-10-05T07:45:53.676Z,15.20
2022-10-05T07:48:23.975Z,15.40
2022-10-05T07:51:02.567Z,15.40
2022-10-05T07:53:37.732Z,15.30
2022-10-05T07:56:15.682Z,15.50
2022-10-05T07:58:47.065Z,15.70
2022-10-05T08:01:20.795Z,15.60
2022-10-05T08:03:57.319Z,15.70
2022-10-05T08:06:40.035Z,15.60
2022-10-05T08:09:22.032Z,15.80
2022-10-05T08:11:56.811Z,15.80
2022-10-05T08:14:33.652Z,15.70
2022-10-05T08:17:05.135Z,15.90
2022-10-05T08:19:40.646Z,16.10
2022-10-05T08:22:13.501Z,16.30
2022-10-05T08:24:47.646Z,16.40
2022-10-05T08:27:21.090Z,16.40
2022-10-05T08:29:56.968Z,16.50
2022-10-05T08:32:28.531Z,16.10
2022-10-05T08:35:03.227Z,16.20
2022-10-05T08:37:35.572Z,16.40
2022-10-05T08:40:39.966Z,16.70
2022-10-05T08:43:22.135Z,17.00
2022-10-05T08:46:36.334Z,17.00
2022-10-05T08:49:38.910Z,17.00
2022-10-05T08:52:29.318Z,16.90
2022-10-05T08:55:39.330Z,17.20
2022-10-05T08:58:37.775Z,17.50
2022-10-05T09:01:15.748Z,17.40
2022-10-05T09:04:13.415Z,17.40
2022-10-05T09:07:03.558Z,17.80
2022-10-05T09:10:04.584Z,18.00
2022-10-05T09:12:57.215Z,18.20
2022-10-05T09:15:50.652Z,18.50
2022-10-05T09:18:50.944Z,18.40
2022-10-05T09:21:40.933Z,18.10
2022-10-05T09:24:23.793Z,18.20
2022-10-05T09:27:01.667Z,17.90
2022-10-05T09:29:54.972Z,18.00
2022-10-05T09:32:54.953Z,17.90
2022-10-05T09:35:58.193Z,18.00
2022-10-05T09:38:35.154Z,18.10
2022-10-05T09:41:46.865Z,18.20
2022-10-05T09:44:45.693Z,18.70
2022-10-05T09:47:35.400Z,19.30
2022-10-05T09:50:31.750Z,19.70
2022-10-05T09:53:40.727Z,19.60
2022-10-05T09:59:33.741Z,20.10
2022-10-05T10:02:22.132Z,20.30
2022-10-05T10:05:16.070Z,20.80
2022-10-05T10:07:59.981Z,21.40
2022-10-05T10:11:02.086Z,21.90
2022-10-05T10:14:01.658Z,22.30
2022-10-05T10:16:55.477Z,22.40
2022-10-05T10:19:52.253Z,22.60
2022-10-05T10:22:47.198Z,22.90
2022-10-05T10:25:34.574Z,22.60
2022-10-05T10:28:31.730Z,22.60
2022-10-05T10:31:19.337Z,23.30
2022-10-05T10:34:19.875Z,23.20
2022-10-05T10:37:10.929Z,23.30
2022-10-05T10:39:55.974Z,22.80
2022-10-05T10:42:36.720Z,23.00
2022-10-05T10:45:21.146Z,23.20
2022-10-05T10:47:59.846Z,24.00
2022-10-05T10:50:50.737Z,23.60
2022-10-05T10:53:43.082Z,23.50
2022-10-05T10:56:34.387Z,23.30
2022-10-05T10:59:30.846Z,23.30
2022-10-05T11:02:37.476Z,23.10
2022-10-05T11:05:33.071Z,23.60
2022-10-05T11:08:27.303Z,23.90
2022-10-05T11:11:17.786Z,24.10
2022-10-05T11:14:04.772Z,24.00
2022-10-05T11:17:06.458Z,24.20
2022-10-05T11:20:05.245Z,24.80
2022-10-05T11:22:51.318Z,24.60
2022-10-05T11:25:44.396Z,23.40
2022-10-05T11:28:41.306Z,23.10
2022-10-05T11:31:37.829Z,22.90
2022-10-05T11:34:32.606Z,23.10
2022-10-05T11:37:33.779Z,23.50
2022-10-05T11:40:59.085Z,23.80
2022-10-05T11:43:55.793Z,23.40
2022-10-05T11:46:29.234Z,23.60
2022-10-05T11:49:31.250Z,23.30
2022-10-05T11:52:07.791Z,22.60
2022-10-05T11:57:41.048Z,22.50
2022-10-05T12:00:19.112Z,22.80
2022-10-05T12:03:12.451Z,23.40
2022-10-05T12:05:52.958Z,23.50
2022-10-05T12:08:33.684Z,23.60
2022-10-05T12:11:13.435Z,24.00
2022-10-05T12:13:48.313Z,24.50
2022-10-05T12:16:24.043Z,24.30
2022-10-05T12:18:58.921Z,24.50
2022-10-05T12:21:37.643Z,24.60
2022-10-05T12:24:14.895Z,24.70
2022-10-05T12:26:48.435Z,24.60
2022-10-05T12:29:24.630Z,24.60
2022-10-05T12:32:01.139Z,24.00
2022-10-05T12:34:44.906Z,25.10
2022-10-05T12:37:39.087Z,25.80
2022-10-05T12:40:19.706Z,26.50
2022-10-05T12:42:55.782Z,28.10
2022-10-05T12:45:34.336Z,27.30
2022-10-05T12:48:22.080Z,26.90
2022-10-05T12:50:52.035Z,27.40
2022-10-05T12:53:29.838Z,28.20
2022-10-05T12:56:05.123Z,28.20
2022-10-05T12:58:42.776Z,28.90
2022-10-05T13:01:21.801Z,29.10
2022-10-05T13:03:59.011Z,29.20
2022-10-05T13:06:38.269Z,29.60
2022-10-05T13:09:13.854Z,29.60
2022-10-05T13:11:46.856Z,29.90
2022-10-05T13:14:24.495Z,30.40
2022-10-05T13:17:00.765Z,31.40
2022-10-05T13:19:40.596Z,29.70
2022-10-05T13:22:27.123Z,30.20
2022-10-05T13:25:09.839Z,30.20
2022-10-05T13:27:43.120Z,30.20
2022-10-05T13:30:15.539Z,30.90
2022-10-05T13:32:48.269Z,31.20
2022-10-05T13:35:31.282Z,31.50
2022-10-05T13:38:08.895Z,31.80
2022-10-05T13:40:43.932Z,32.40
2022-10-05T13:43:23.229Z,32.00
2022-10-05T13:45:57.144Z,31.90
2022-10-05T13:48:48.080Z,32.20
2022-10-05T13:51:22.890Z,30.80
2022-10-05T13:53:57.949Z,30.90
2022-10-05T13:56:31.674Z,31.90
2022-10-05T13:59:14.851Z,33.50
2022-10-05T14:01:50.013Z,33.20
2022-10-05T14:04:21.033Z,31.50
2022-10-05T14:06:52.552Z,31.80
2022-10-05T14:09:31.999Z,32.20
2022-10-05T14:12:15.840Z,32.80
2022-10-05T14:14:47.086Z,31.30
2022-10-05T14:17:18.242Z,32.10
2022-10-05T14:19:51.072Z,31.70
2022-10-05T14:22:24.846Z,31.60
2022-10-05T14:24:56.666Z,30.30
2022-10-05T14:27:27.626Z,30.40
2022-10-05T14:30:01.090Z,31.00
2022-10-05T14:32:32.839Z,31.30
2022-10-05T14:35:13.907Z,30.80
2022-10-05T14:37:51.658Z,30.50
2022-10-05T14:40:27.132Z,31.40
2022-10-05T14:42:56.010Z,30.40
2022-10-05T14:45:26.115Z,30.90
2022-10-05T14:48:00.212Z,31.20
2022-10-05T14:50:31.859Z,31.60
2022-10-05T14:53:16.499Z,31.60
2022-10-05T14:56:03.454Z,32.10
2022-10-05T14:58:46.546Z,31.90
2022-10-05T15:01:22.748Z,31.30
2022-10-05T15:04:00.287Z,32.50
2022-10-05T15:06:42.647Z,32.20
2022-10-05T15:09:38.662Z,33.00
2022-10-05T15:12:07.150Z,32.70
2022-10-05T15:14:38.509Z,31.90
2022-10-05T15:17:16.503Z,32.10
2022-10-05T15:19:56.402Z,31.90
2022-10-05T15:22:31.719Z,31.10
2022-10-05T15:25:12.468Z,31.60
2022-10-05T15:27:59.416Z,30.80
2022-10-05T15:30:27.855Z,31.10
2022-10-05T15:33:08.989Z,31.60
2022-10-05T15:35:55.651Z,31.50
2022-10-05T15:38:26.601Z,31.50
2022-10-05T15:41:10.232Z,31.50
2022-10-05T15:43:50.163Z,32.00
2022-10-05T15:46:23.283Z,31.90
2022-10-05T15:49:00.688Z,30.80
2022-10-05T15:51:43.558Z,28.80
2022-10-05T15:54:37.058Z,27.10
2022-10-05T15:57:14.666Z,26.00
2022-10-05T15:59:52.416Z,24.90
2022-10-05T16:02:29.406Z,24.90
2022-10-05T16:05:07.483Z,24.60
2022-10-05T16:08:01.159Z,24.30
2022-10-05T16:10:33.229Z,24.50
2022-10-05T16:13:19.155Z,24.30
2022-10-05T16:15:51.207Z,24.40
2022-10-05T16:18:40.572Z,24.20
2022-10-05T16:21:22.810Z,24.10
2022-10-05T16:24:06.273Z,23.90
2022-10-05T16:26:48.326Z,23.60
2022-10-05T16:29:25.050Z,23.60
2022-10-05T16:31:59.984Z,23.60
2022-10-05T16:34:38.023Z,23.40
2022-10-05T16:37:13.897Z,23.20
2022-10-05T16:39:53.679Z,23.00
2022-10-05T16:42:43.497Z,23.10
2022-10-05T16:45:45.098Z,23.20
2022-10-05T16:48:23.192Z,23.40
2022-10-05T16:51:14.153Z,23.30
2022-10-05T16:53:45.624Z,23.20
2022-10-05T16:56:17.972Z,23.10
2022-10-05T16:59:00.466Z,22.80
2022-10-05T17:01:45.544Z,23.00
2022-10-05T17:04:28.389Z,22.80
2022-10-05T17:07:26.323Z,22.70
2022-10-05T17:10:21.834Z,22.60
2022-10-05T17:13:02.455Z,22.70
2022-10-05T17:15:41.964Z,22.70
2022-10-05T17:18:28.223Z,22.30
2022-10-05T17:21:05.459Z,22.20
2022-10-05T17:23:40.767Z,22.20
2022-10-05T17:26:32.454Z,22.10
2022-10-05T17:29:10.648Z,22.20
2022-10-05T17:32:03.699Z,22.00
2022-10-05T17:34:35.322Z,22.00
2022-10-05T17:37:35.160Z,21.90
2022-10-05T17:40:35.039Z,21.90
2022-10-05T17:43:24.004Z,21.80
2022-10-05T17:45:58.082Z,21.60
2022-10-05T17:49:08.175Z,21.50
2022-10-05T17:52:17.329Z,21.60
2022-10-05T17:55:28.131Z,21.60
2022-10-05T17:57:59.907Z,21.30
2022-10-05T18:00:43.837Z,21.30
2022-10-05T18:03:34.006Z,21.40
2022-10-05T18:06:31.806Z,21.40
2022-10-05T18:09:38.678Z,21.10
2022-10-05T18:12:15.341Z,21.00
2022-10-05T18:15:02.037Z,21.10
2022-10-05T18:17:41.166Z,21.00
2022-10-05T18:20:18.174Z,21.00
2022-10-05T18:22:47.347Z,21.00
2022-10-05T18:25:30.940Z,21.10
2022-10-05T18:28:13.302Z,21.00
2022-10-05T18:31:05.152Z,21.00
2022-10-05T18:33:59.618Z,21.00
2022-10-05T18:36:56.474Z,21.00
2022-10-05T18:39:41.614Z,20.90
2022-10-05T18:42:20.251Z,20.80
2022-10-05T18:44:53.896Z,20.80
2022-10-05T18:47:31.474Z,20.60
2022-10-05T18:50:14.408Z,20.60
2022-10-05T18:53:08.336Z,20.40
2022-10-05T18:55:42.177Z,20.50
2022-10-05T18:58:19.023Z,20.50
2022-10-05T19:01:01.194Z,20.60
2022-10-05T19:03:36.801Z,20.50
2022-10-05T19:06:14.989Z,20.60
2022-10-05T19:08:52.219Z,20.40
2022-10-05T19:11:25.752Z,20.40
2022-10-05T19:14:05.983Z,20.40
2022-10-05T19:16:55.303Z,20.40
2022-10-05T19:19:39.621Z,20.40
2022-10-05T19:22:17.848Z,20.50
2022-10-05T19:24:57.789Z,20.60
2022-10-05T19:27:35.750Z,20.50
2022-10-05T19:30:15.568Z,20.30
2022-10-05T19:33:14.340Z,20.40
2022-10-05T19:35:58.545Z,20.40
2022-10-05T19:38:35.298Z,20.30
2022-10-05T19:41:13.444Z,20.20
2022-10-05T19:43:57.986Z,20.30
2022-10-05T19:46:43.003Z,20.30
2022-10-05T19:49:11.670Z,20.30
2022-10-05T19:51:51.029Z,20.30
2022-10-05T19:54:25.834Z,20.40
2022-10-05T19:56:54.947Z,20.30
2022-10-05T19:59:26.217Z,20.10
2022-10-05T20:01:58.226Z,20.30
2022-10-05T20:04:35.334Z,20.30
2022-10-05T20:07:03.994Z,20.20
2022-10-05T20:09:51.866Z,20.10
2022-10-05T20:12:22.593Z,20.40
2022-10-05T20:15:24.795Z,20.40
2022-10-05T20:18:11.777Z,20.30
2022-10-05T20:20:45.755Z,20.40
2022-10-05T20:23:21.623Z,20.30
2022-10-05T20:26:11.138Z,20.20
2022-10-05T20:28:39.808Z,20.00
2022-10-05T20:31:08.710Z,20.10
2022-10-05T20:33:40.543Z,19.90
2022-10-05T20:36:08.929Z,19.90
2022-10-05T20:38:40.809Z,20.00
2022-10-05T20:41:09.583Z,19.80
2022-10-05T20:43:39.338Z,19.60
2022-10-05T20:46:08.075Z,19.70
2022-10-05T20:48:36.602Z,19.80
2022-10-05T20:51:06.272Z,19.80
2022-10-05T20:53:34.658Z,19.70
2022-10-05T20:56:04.416Z,19.70
2022-10-05T20:58:32.579Z,19.70
2022-10-05T21:01:19.751Z,19.60
2022-10-05T21:03:48.328Z,19.70
2022-10-05T21:06:19.011Z,19.90
2022-10-05T21:08:47.238Z,19.70
2022-10-05T21:11:15.784Z,19.90
2022-10-05T21:13:45.210Z,19.60
2022-10-05T21:16:14.044Z,19.70
2022-10-05T21:18:42.799Z,19.60
2022-10-05T21:21:11.212Z,19.60
2022-10-05T21:23:40.684Z,19.50
2022-10-05T21:26:08.946Z,19.50
2022-10-05T21:28:37.157Z,19.60
2022-10-05T21:31:05.393Z,19.60
2022-10-05T21:33:33.620Z,19.60
2022-10-05T21:36:02.097Z,19.50
2022-10-05T21:38:30.624Z,19.50
2022-10-05T21:41:00.370Z,19.50
2022-10-05T21:43:29.098Z,19.50
2022-10-05T21:45:57.701Z,19.60
2022-10-05T21:48:27.103Z,19.70
2022-10-05T21:50:55.525Z,19.60
2022-10-05T21:53:29.026Z,19.60
2022-10-05T21:56:02.147Z,19.60
2022-10-05T21:58:33.031Z,19.50
2022-10-05T22:01:01.329Z,19.50
2022-10-05T22:03:29.509Z,19.30
2022-10-05T22:05:57.778Z,19.30
2022-10-05T22:08:28.477Z,19.30
2022-10-05T22:10:57.161Z,19.10
2022-10-05T22:13:26.576Z,19.30
2022-10-05T22:15:57.007Z,19.40
2022-10-05T22:18:26.831Z,19.20
2022-10-05T22:20:55.389Z,19.30
2022-10-05T22:23:23.507Z,19.20
2022-10-05T22:25:51.703Z,19.20
2022-10-05T22:28:19.959Z,19.10
2022-10-05T22:30:48.131Z,19.10
2022-10-05T22:33:17.612Z,19.20
2022-10-05T22:35:45.888Z,19.20
2022-10-05T22:38:14.040Z,19.00
2022-10-05T22:40:42.450Z,19.10
2022-10-05T22:43:10.610Z,19.10
2022-10-05T22:45:38.790Z,19.00
2022-10-05T22:48:07.144Z,18.70
2022-10-05T22:50:36.893Z,18.80
2022-10-05T22:53:05.148Z,18.90
2022-10-05T22:55:33.346Z,18.80
2022-10-05T22:58:02.811Z,18.80
2022-10-05T23:00:53.448Z,18.80
2022-10-05T23:03:19.547Z,18.80
2022-10-05T23:05:49.124Z,19.00
2022-10-05T23:08:17.251Z,18.80
2022-10-05T23:10:45.425Z,18.60
2022-10-05T23:13:13.603Z,18.70
2022-10-05T23:15:42.393Z,18.70
2022-10-05T23:18:10.559Z,18.70
2022-10-05T23:20:40.176Z,18.50
2022-10-05T23:23:09.664Z,18.50
2022-10-05T23:25:37.839Z,18.50
2022-10-05T23:28:06.033Z,18.60
2022-10-05T23:30:34.305Z,18.60
2022-10-05T23:33:02.937Z,18.60
2022-10-05T23:35:31.055Z,18.60
2022-10-05T23:38:00.427Z,18.50
2022-10-05T23:40:29.983Z,18.40
2022-10-05T23:42:58.446Z,18.30
2022-10-05T23:45:26.687Z,18.20
2022-10-05T23:47:54.858Z,18.40
2022-10-05T23:50:25.060Z,18.50
2022-10-05T23:52:53.248Z,18.40
2022-10-05T23:55:21.376Z,18.30
2022-10-05T23:57:50.903Z,18.30
